Aviation Digital Data Service (ADDS)

Output produced by METARs form (1814 UTC 20 January 2019)
found at http://www.aviationweather.gov/metar/data/
 
TAF WPDL 201716Z 2018/2106 13005KT 9999 SCT020 
     FM210000 30010KT 9999 SCT025 
     PROB30 
     TEMPO 2018/2106 VRB20G35KT 1000 TSRA BKN010 SCT020CB